Time;durP1;ratioP1;P1;durP2;ratioP2;P2;SDS_P1;SDS_P2;PMS_P1;PMS_P2;Temp;Humidity;BMP_temperature;BMP_pressure;BME280_temperature;BME280_humidity;BME280_pressure;Samples;Min_cycle;Max_cycle;Signal;HPM_P1;HPM_P2
2021/01/06 00:01:02;;;;;;;36.30;11.65;;;;;;;0.33;100.00;97401.28;4971174;28;20662;-78
2021/01/06 00:03:29;;;;;;;102.55;13.10;;;;;;;0.31;100.00;97401.53;4971183;28;20047;-78
2021/01/06 00:05:57;;;;;;;74.55;12.35;;;;;;;0.26;100.00;97409.47;4954495;28;20047;-78
2021/01/06 00:08:25;;;;;;;112.95;12.02;;;;;;;0.20;100.00;97401.72;4970952;28;20054;-77
2021/01/06 00:10:53;;;;;;;185.48;13.30;;;;;;;0.21;100.00;97404.13;4972299;28;20130;-77
2021/01/06 00:13:20;;;;;;;211.43;15.63;;;;;;;0.20;100.00;97399.88;4966773;28;20045;-77
2021/01/06 00:15:47;;;;;;;256.70;14.93;;;;;;;0.18;100.00;97395.84;4953239;29;20050;-77
2021/01/06 00:18:16;;;;;;;240.35;15.10;;;;;;;0.09;100.00;97390.19;4952726;28;20050;-76
2021/01/06 00:20:45;;;;;;;326.17;16.98;;;;;;;-0.03;100.00;97374.38;4964167;28;20046;-77
2021/01/06 00:23:11;;;;;;;346.40;17.05;;;;;;;0.04;100.00;97395.47;4975819;28;20053;-76
2021/01/06 00:25:41;;;;;;;231.00;15.73;;;;;;;0.05;100.00;97391.75;4980095;28;20051;-78
2021/01/06 00:28:14;;;;;;;207.35;15.07;;;;;;;0.05;100.00;97382.97;4981504;28;20043;-77
2021/01/06 00:30:45;;;;;;;186.20;13.25;;;;;;;0.09;100.00;97392.03;4963631;28;20034;-77
2021/01/06 00:33:17;;;;;;;130.82;13.05;;;;;;;0.12;100.00;97391.53;4985773;28;20101;-78
2021/01/06 00:35:52;;;;;;;105.60;13.35;;;;;;;0.04;100.00;97387.50;4975191;28;20140;-76
2021/01/06 00:38:24;;;;;;;102.85;12.27;;;;;;;0.11;100.00;97388.06;4970150;28;20077;-77
2021/01/06 00:40:50;;;;;;;76.30;11.60;;;;;;;0.17;100.00;97391.56;4976105;28;20043;-78
2021/01/06 00:43:18;;;;;;;73.03;12.50;;;;;;;0.22;100.00;97387.09;4958128;28;20041;-76
2021/01/06 00:45:45;;;;;;;60.63;12.00;;;;;;;0.15;100.00;97377.72;4972134;28;20063;-75
2021/01/06 00:48:12;;;;;;;83.30;13.02;;;;;;;0.13;100.00;97377.97;4964007;28;20525;-78
2021/01/06 00:50:40;;;;;;;37.67;11.30;;;;;;;0.17;100.00;97394.25;4973721;28;20035;-76
2021/01/06 00:53:13;;;;;;;42.55;11.05;;;;;;;0.14;100.00;97379.59;4973297;28;20043;-78
2021/01/06 00:55:39;;;;;;;45.38;10.70;;;;;;;0.14;100.00;97378.78;4973418;28;20050;-77
2021/01/06 00:58:05;;;;;;;29.08;10.15;;;;;;;0.20;100.00;97372.44;4974863;28;20088;-77
2021/01/06 01:00:33;;;;;;;25.73;10.20;;;;;;;0.18;100.00;97385.22;4956965;28;20130;-76
2021/01/06 01:03:00;;;;;;;28.20;10.07;;;;;;;0.22;100.00;97392.41;4973652;28;20047;-77
2021/01/06 01:05:28;;;;;;;24.27;9.43;;;;;;;0.17;100.00;97388.91;4974752;28;20043;-77
2021/01/06 01:07:59;;;;;;;23.70;9.75;;;;;;;0.21;100.00;97401.44;4973976;28;20045;-77
2021/01/06 01:10:25;;;;;;;24.00;9.48;;;;;;;0.22;100.00;97397.75;4974295;28;20126;-77
2021/01/06 01:12:56;;;;;;;21.30;8.63;;;;;;;0.18;100.00;97396.63;4973231;28;20066;-77
2021/01/06 01:15:26;;;;;;;22.63;9.23;;;;;;;0.26;100.00;97401.50;4973816;28;20097;-78
2021/01/06 01:17:52;;;;;;;18.98;8.30;;;;;;;0.26;100.00;97400.72;4976207;28;20053;-77
2021/01/06 01:20:21;;;;;;;20.85;7.60;;;;;;;0.21;100.00;97392.66;4963147;28;20034;-76
2021/01/06 01:22:48;;;;;;;18.90;7.53;;;;;;;0.23;100.00;97403.88;4973441;28;20049;-76
2021/01/06 01:25:20;;;;;;;19.63;7.85;;;;;;;0.24;100.00;97395.63;4974712;28;20058;-76
2021/01/06 01:27:50;;;;;;;17.30;8.02;;;;;;;0.18;100.00;97390.53;4979166;28;20090;-77
2021/01/06 01:30:23;;;;;;;15.88;7.43;;;;;;;0.27;100.00;97397.78;4993756;28;20046;-78
2021/01/06 01:32:50;;;;;;;15.93;7.65;;;;;;;0.30;100.00;97393.81;4975528;28;20051;-76
2021/01/06 01:35:23;;;;;;;20.08;7.22;;;;;;;0.31;100.00;97403.41;4973480;28;20485;-76
2021/01/06 01:37:52;;;;;;;17.15;7.68;;;;;;;0.30;100.00;97399.13;4957201;28;20053;-77
2021/01/06 01:40:28;;;;;;;16.60;7.50;;;;;;;0.31;100.00;97398.09;4972551;28;20540;-77
2021/01/06 01:43:06;;;;;;;15.32;7.00;;;;;;;0.20;100.00;97375.09;4957563;28;20503;-77
2021/01/06 01:45:46;;;;;;;18.90;7.65;;;;;;;0.25;100.00;97378.59;4964477;28;20053;-77
2021/01/06 01:48:28;;;;;;;17.55;7.70;;;;;;;0.28;100.00;97358.66;4960909;28;20043;-77
2021/01/06 01:50:57;;;;;;;19.38;7.90;;;;;;;0.27;100.00;97363.19;4971133;28;20039;-78
2021/01/06 01:53:36;;;;;;;22.63;9.05;;;;;;;0.19;100.00;97342.34;4955583;28;20046;-75
2021/01/06 01:56:08;;;;;;;25.05;9.00;;;;;;;0.25;100.00;97346.66;4939334;28;20054;-76
2021/01/06 01:58:36;;;;;;;22.42;8.43;;;;;;;0.26;100.00;97334.16;4957560;28;20046;-77
2021/01/06 02:01:31;;;;;;;20.83;8.55;;;;;;;0.15;100.00;97329.81;4994187;23;20372;-82
2021/01/06 02:05:11;;;;;;;21.55;8.02;;;;;;;0.28;100.00;97342.69;4960171;28;20057;-81
2021/01/06 02:08:34;;;;;;;22.38;9.02;;;;;;;0.32;100.00;97351.75;4991729;28;20536;-80
2021/01/06 02:15:44;;;;;;;19.55;7.95;;;;;;;0.28;100.00;97353.34;4991842;28;20133;-80
2021/01/06 02:18:44;;;;;;;;;;;;;;;;;;;;;
2021/01/06 02:22:04;;;;;;;22.35;8.35;;;;;;;0.22;100.00;97336.53;4891295;29;20056;-81
2021/01/06 02:25:14;;;;;;;20.15;7.53;;;;;;;0.18;100.00;97338.09;4988723;28;20516;-81
2021/01/06 02:29:06;;;;;;;;;;;;;;;;;;;;;
2021/01/06 02:32:09;;;;;;;22.17;7.03;;;;;;;0.34;100.00;97365.59;4910258;29;20527;-81
2021/01/06 02:35:12;;;;;;;22.85;8.50;;;;;;;0.27;100.00;97363.19;4962560;28;20042;-85
2021/01/06 02:38:14;;;;;;;26.92;8.60;;;;;;;0.19;100.00;97333.56;5007888;28;20057;-79
2021/01/06 02:41:53;;;;;;;20.17;8.38;;;;;;;0.20;100.00;97343.16;4955238;28;20050;-83
2021/01/06 02:44:40;;;;;;;23.15;8.73;;;;;;;0.22;100.00;97341.03;4989579;28;20047;-82
2021/01/06 02:47:47;;;;;;;21.13;8.77;;;;;;;0.13;100.00;97327.41;4981619;28;20061;-83
2021/01/06 02:54:52;;;;;;;23.05;8.50;;;;;;;0.20;100.00;97322.69;4988715;28;20045;-84
2021/01/06 02:57:34;;;;;;;27.08;9.43;;;;;;;0.15;100.00;97320.00;4974862;28;20120;-84
2021/01/06 03:00:29;;;;;;;52.70;10.27;;;;;;;0.09;100.00;97305.03;4967155;28;20101;-83
2021/01/06 03:04:24;;;;;;;50.17;9.98;;;;;;;0.19;100.00;97322.91;4971510;28;20113;-82
2021/01/06 03:07:51;;;;;;;72.82;9.98;;;;;;;0.20;100.00;97327.19;4977446;28;20061;-88
2021/01/06 03:11:05;;;;;;;80.28;10.27;;;;;;;0.22;100.00;97317.09;4984699;28;20050;-82
2021/01/06 03:14:38;;;;;;;;;;;;;;;;;;;;;
2021/01/06 03:21:52;;;;;;;75.38;11.38;;;;;;;0.36;100.00;97319.03;4906091;29;20051;-81
2021/01/06 03:28:43;;;;;;;79.68;10.55;;;;;;;0.41;100.00;97313.75;4954827;28;20136;-80
2021/01/06 03:32:10;;;;;;;34.30;9.65;;;;;;;0.34;100.00;97301.72;4937513;28;20463;-84
2021/01/06 03:36:02;;;;;;;38.80;9.98;;;;;;;0.48;100.00;97308.19;4909109;28;20146;-81
2021/01/06 03:39:45;;;;;;;29.90;9.88;;;;;;;0.33;100.00;97292.16;4984420;28;20521;-82
2021/01/06 03:42:51;;;;;;;32.15;10.23;;;;;;;0.31;100.00;97296.94;4904008;29;20056;-81
2021/01/06 03:46:23;;;;;;;32.30;9.45;;;;;;;0.32;100.00;97286.03;4976409;28;20042;-80
2021/01/06 03:50:18;;;;;;;25.20;10.15;;;;;;;0.49;100.00;97304.50;4946360;29;20129;-81
2021/01/06 03:57:57;;;;;;;24.50;9.23;;;;;;;0.51;100.00;97305.03;4873535;29;20055;-83
2021/01/06 04:01:21;;;;;;;20.52;8.43;;;;;;;0.31;100.00;97267.66;4926874;29;20417;-80
2021/01/06 04:05:10;;;;;;;21.70;8.27;;;;;;;0.33;100.00;97269.00;4941628;28;20105;-80
2021/01/06 04:08:29;;;;;;;15.90;7.03;;;;;;;0.33;100.00;97268.19;4964125;28;20058;-83
2021/01/06 04:11:41;;;;;;;16.92;7.20;;;;;;;0.37;100.00;97267.41;4956103;28;20230;-80
2021/01/06 04:18:48;;;;;;;16.33;6.70;;;;;;;0.36;100.00;97260.47;4998194;28;20080;-80
2021/01/06 04:21:37;;;;;;;13.98;6.60;;;;;;;0.30;100.00;97242.91;4987979;28;20444;-81
2021/01/06 04:24:52;;;;;;;16.17;6.63;;;;;;;0.34;100.00;97251.13;4947951;28;20374;-79
2021/01/06 04:28:08;;;;;;;13.82;6.60;;;;;;;0.43;100.00;97255.72;4970162;28;20049;-81
2021/01/06 04:31:17;;;;;;;12.40;6.22;;;;;;;0.28;100.00;97246.88;4985991;28;20162;-81
2021/01/06 04:34:24;;;;;;;12.88;5.72;;;;;;;0.34;100.00;97243.97;4983697;28;20038;-80
2021/01/06 04:37:31;;;;;;;16.58;6.43;;;;;;;0.26;100.00;97238.34;4967681;28;20081;-84
2021/01/06 04:40:30;;;;;;;19.73;5.70;;;;;;;0.23;100.00;97230.88;4929709;28;20594;-83
2021/01/06 04:43:35;;;;;;;;;;;;;;;;;;;;;
2021/01/06 04:47:09;;;;;;;18.35;6.53;;;;;;;0.40;100.00;97245.59;4976097;28;20489;-80
2021/01/06 04:50:48;;;;;;;21.27;7.63;;;;;;;0.39;100.00;97238.66;4976036;28;20042;-79
2021/01/06 04:54:18;;;;;;;27.17;7.78;;;;;;;0.45;100.00;97234.97;4960632;28;20404;-86
2021/01/06 04:57:32;;;;;;;23.58;7.90;;;;;;;0.38;100.00;97237.06;4965632;28;20524;-81
2021/01/06 05:01:49;;;;;;;48.70;8.45;;;;;;;0.29;100.00;97230.63;4915282;29;20078;-81
2021/01/06 05:05:09;;;;;;;;;;;;;;;;;;;;;
2021/01/06 05:08:13;;;;;;;70.32;7.63;;;;;;;0.37;100.00;97240.78;4946178;29;20079;-83
2021/01/06 05:11:33;;;;;;;26.50;7.68;;;;;;;0.29;100.00;97225.31;4945165;29;20040;-81
2021/01/06 05:14:21;;;;;;;51.80;8.63;;;;;;;0.31;100.00;97233.06;4924957;28;20102;-81
2021/01/06 05:17:23;;;;;;;47.22;8.68;;;;;;;0.26;100.00;97212.50;4973896;28;20071;-82
2021/01/06 05:20:37;;;;;;;73.43;8.32;;;;;;;0.36;100.00;97227.75;4973115;28;20594;-82
2021/01/06 05:23:27;;;;;;;48.58;8.05;;;;;;;0.44;100.00;97235.25;4978912;28;20121;-83
2021/01/06 05:26:20;;;;;;;66.38;9.10;;;;;;;0.41;100.00;97227.78;4972150;28;20145;-82
2021/01/06 05:30:26;;;;;;;41.30;9.13;;;;;;;0.47;100.00;97234.69;4995892;28;20054;-83
2021/01/06 05:33:48;;;;;;;41.58;9.82;;;;;;;0.36;100.00;97220.53;4916059;29;20051;-84
2021/01/06 05:37:00;;;;;;;26.75;9.05;;;;;;;0.42;100.00;97227.50;4913983;29;20086;-82
2021/01/06 05:40:30;;;;;;;75.07;9.10;;;;;;;0.39;100.00;97229.88;4902394;29;20060;-84
2021/01/06 05:43:53;;;;;;;64.20;9.15;;;;;;;0.43;100.00;97236.28;4904683;29;20131;-82
2021/01/06 05:47:03;;;;;;;61.22;9.95;;;;;;;0.30;100.00;97218.94;4891105;29;20051;-83
2021/01/06 05:50:33;;;;;;;49.67;9.82;;;;;;;0.32;100.00;97219.47;4918805;28;20177;-83
2021/01/06 05:54:19;;;;;;;79.20;10.23;;;;;;;0.42;100.00;97240.00;4999108;28;20054;-82
2021/01/06 05:57:16;;;;;;;;;;;;;;;;;;;;;
2021/01/06 06:00:29;;;;;;;;;;;;;;;;;;;;;
2021/01/06 06:03:56;;;;;;;;;;;;;;;;;;;;;
2021/01/06 06:07:06;;;;;;;65.63;12.50;;;;;;;0.49;100.00;97240.59;5009539;28;20414;-80
2021/01/06 06:10:30;;;;;;;115.95;11.70;;;;;;;0.45;100.00;97239.50;4996346;28;20192;-80
2021/01/06 06:13:41;;;;;;;65.88;11.63;;;;;;;0.43;100.00;97233.63;4988247;28;20058;-81
2021/01/06 06:17:33;;;;;;;81.72;10.82;;;;;;;0.42;100.00;97226.69;5003185;28;20187;-85
2021/01/06 06:21:08;;;;;;;;;;;;;;;;;;;;;
2021/01/06 06:24:41;;;;;;;126.80;11.43;;;;;;;0.42;100.00;97232.00;4947682;29;20098;-79
2021/01/06 06:27:58;;;;;;;131.45;12.02;;;;;;;0.30;100.00;97226.13;4869793;29;20059;-82
2021/01/06 06:31:18;;;;;;;165.30;12.88;;;;;;;0.48;100.00;97252.28;4939752;28;20526;-81
2021/01/06 06:34:16;;;;;;;202.05;13.20;;;;;;;0.34;100.00;97227.19;4944524;28;20149;-80
2021/01/06 06:37:29;;;;;;;;;;;;;;;;;;;;;
2021/01/06 06:41:04;;;;;;;;;;;;;;;;;;;;;
2021/01/06 06:44:33;;;;;;;191.50;14.32;;;;;;;0.54;100.00;97260.03;4936474;29;20059;-81
2021/01/06 06:47:46;;;;;;;362.52;16.38;;;;;;;0.41;100.00;97243.75;4939163;29;20039;-83
2021/01/06 06:50:35;;;;;;;451.13;16.92;;;;;;;0.48;100.00;97257.63;4924547;29;20071;-81
2021/01/06 06:53:25;;;;;;;358.70;16.00;;;;;;;0.53;100.00;97253.13;4915019;29;20056;-79
2021/01/06 06:56:10;;;;;;;441.83;18.60;;;;;;;0.40;100.00;97244.78;4928827;29;20046;-81
2021/01/06 06:59:36;;;;;;;523.28;19.25;;;;;;;0.49;100.00;97248.56;4928351;29;20050;-84
2021/01/06 07:03:21;;;;;;;471.80;18.30;;;;;;;0.41;100.00;97241.09;4904879;29;20132;-82
2021/01/06 07:06:11;;;;;;;438.98;18.15;;;;;;;0.45;100.00;97248.28;4935490;29;20341;-84
2021/01/06 07:09:08;;;;;;;489.80;20.08;;;;;;;0.33;100.00;97229.06;4938669;29;20070;-81
2021/01/06 07:12:37;;;;;;;481.08;19.63;;;;;;;0.55;100.00;97248.31;4945438;29;20051;-83
2021/01/06 07:15:37;;;;;;;386.75;19.02;;;;;;;0.40;100.00;97228.81;4909369;29;20130;-81
2021/01/06 07:18:41;;;;;;;396.42;19.80;;;;;;;0.45;100.00;97242.97;4992227;28;20046;-81
2021/01/06 07:21:41;;;;;;;290.73;18.98;;;;;;;0.51;100.00;97244.59;4958064;28;20517;-82
2021/01/06 07:25:03;;;;;;;324.83;17.50;;;;;;;0.54;100.00;97243.28;4973333;28;20057;-81
2021/01/06 07:28:21;;;;;;;528.17;21.58;;;;;;;0.48;100.00;97236.31;5000235;28;20374;-82
2021/01/06 07:32:11;;;;;;;458.75;21.60;;;;;;;0.46;100.00;97228.59;4977667;28;20412;-85
2021/01/06 07:34:55;;;;;;;487.83;18.85;;;;;;;0.47;100.00;97227.50;4982043;28;20081;-81
2021/01/06 07:38:26;;;;;;;614.00;22.50;;;;;;;0.65;100.00;97258.19;5006094;28;20037;-81
2021/01/06 07:41:29;;;;;;;413.60;20.67;;;;;;;0.52;100.00;97240.03;4958782;28;20049;-82
2021/01/06 07:44:49;;;;;;;483.15;21.23;;;;;;;0.69;100.00;97267.28;4981422;28;20154;-81
2021/01/06 07:47:29;;;;;;;638.17;24.08;;;;;;;0.57;100.00;97242.72;5000166;28;20529;-80
2021/01/06 07:50:28;;;;;;;671.60;25.73;;;;;;;0.52;100.00;97240.03;5017698;28;20180;-82
2021/01/06 07:53:36;;;;;;;484.98;21.77;;;;;;;0.59;100.00;97245.94;4971842;28;20102;-83
2021/01/06 07:56:55;;;;;;;517.40;22.42;;;;;;;0.75;100.00;97258.25;4959649;28;20033;-82
2021/01/06 08:00:06;;;;;;;527.97;22.25;;;;;;;0.71;100.00;97267.03;4998901;28;20038;-79
2021/01/06 08:03:39;;;;;;;578.78;24.63;;;;;;;0.57;100.00;97253.38;4999865;23;20144;-77
2021/01/06 08:06:53;;;;;;;542.45;25.30;;;;;;;0.49;100.00;97235.25;5008503;28;20046;-76
2021/01/06 08:09:29;;;;;;;466.90;23.58;;;;;;;0.78;100.00;97268.38;4997266;28;20092;-78
2021/01/06 08:11:56;;;;;;;566.08;26.85;;;;;;;0.74;100.00;97271.84;4968112;28;20061;-77
2021/01/06 08:14:32;;;;;;;213.07;19.70;;;;;;;0.84;100.00;97266.53;4963395;28;20205;-77
2021/01/06 08:17:11;;;;;;;411.88;24.65;;;;;;;0.87;100.00;97268.69;4986890;28;20081;-77
2021/01/06 08:20:09;;;;;;;437.58;25.10;;;;;;;0.85;100.00;97270.81;4991933;28;20050;-77
2021/01/06 08:22:41;;;;;;;242.00;22.65;;;;;;;0.85;100.00;97262.81;4969537;28;20054;-78
2021/01/06 08:25:18;;;;;;;418.15;25.60;;;;;;;0.89;100.00;97271.88;4972610;28;20149;-77
2021/01/06 08:27:45;;;;;;;458.08;24.38;;;;;;;0.80;100.00;97266.25;4992306;28;20104;-77
2021/01/06 08:30:15;;;;;;;405.15;24.08;;;;;;;0.85;100.00;97271.59;4977651;28;20048;-77
2021/01/06 08:32:42;;;;;;;540.33;23.00;;;;;;;0.77;100.00;97260.66;4973720;28;20056;-76
2021/01/06 08:35:18;;;;;;;459.48;21.30;;;;;;;0.86;100.00;97262.53;4957632;28;20065;-77
2021/01/06 08:37:50;;;;;;;477.98;22.00;;;;;;;0.88;100.00;97271.06;4972810;28;20046;-78
2021/01/06 08:40:27;;;;;;;366.73;21.10;;;;;;;0.91;100.00;97269.75;4960879;28;20042;-77
2021/01/06 08:42:54;;;;;;;377.95;21.85;;;;;;;0.88;100.00;97268.41;4982735;28;20042;-77
2021/01/06 08:45:31;;;;;;;340.45;22.40;;;;;;;0.95;100.00;97261.00;4991304;28;20039;-78
2021/01/06 08:48:26;;;;;;;422.58;26.08;;;;;;;0.89;100.00;97269.22;4973658;28;20047;-78
2021/01/06 08:50:56;;;;;;;227.73;22.67;;;;;;;1.00;100.00;97277.00;4992300;28;20050;-77
2021/01/06 08:53:34;;;;;;;422.95;24.02;;;;;;;0.95;100.00;97258.31;4992543;28;20046;-77
2021/01/06 08:56:04;;;;;;;543.17;24.88;;;;;;;0.91;100.00;97261.75;4986826;28;20049;-78
2021/01/06 08:58:50;;;;;;;448.00;23.65;;;;;;;0.86;100.00;97261.75;4996270;28;20566;-77
2021/01/06 09:01:36;;;;;;;361.02;23.73;;;;;;;0.91;100.00;97278.53;4996890;28;20046;-79
2021/01/06 09:04:13;;;;;;;317.27;22.15;;;;;;;0.94;100.00;97264.72;4957984;28;20047;-77
2021/01/06 09:07:05;;;;;;;203.57;17.00;;;;;;;0.98;100.00;97263.09;4974716;28;20038;-77
2021/01/06 09:10:10;;;;;;;296.08;17.50;;;;;;;0.90;100.00;97262.84;4987345;28;20380;-77
2021/01/06 09:12:59;;;;;;;227.93;17.13;;;;;;;0.88;100.00;97254.31;4976738;28;20073;-77
2021/01/06 09:15:50;;;;;;;158.90;18.30;;;;;;;0.90;100.00;97262.84;4965152;28;20057;-77
2021/01/06 09:18:33;;;;;;;179.55;18.58;;;;;;;0.88;100.00;97260.41;5005036;28;20194;-76
2021/01/06 09:21:03;;;;;;;168.35;17.42;;;;;;;0.89;100.00;97263.88;4991702;28;20486;-76
2021/01/06 09:23:30;;;;;;;132.38;16.40;;;;;;;0.94;100.00;97263.91;4995531;28;20046;-77
2021/01/06 09:25:59;;;;;;;129.20;15.30;;;;;;;0.94;100.00;97266.56;4976646;28;20042;-77
2021/01/06 09:28:28;;;;;;;75.97;15.68;;;;;;;1.02;100.00;97255.41;4976895;28;20573;-76
2021/01/06 09:30:55;;;;;;;164.80;16.85;;;;;;;0.99;100.00;97261.25;4976381;28;20104;-77
2021/01/06 09:33:31;;;;;;;143.88;15.20;;;;;;;0.95;100.00;97255.66;4993987;28;20061;-76
2021/01/06 09:36:00;;;;;;;114.40;14.80;;;;;;;1.02;100.00;97266.06;4994074;28;20046;-76
2021/01/06 09:38:35;;;;;;;100.03;15.00;;;;;;;1.05;100.00;97268.19;4977707;28;20058;-75
2021/01/06 09:41:06;;;;;;;82.47;14.38;;;;;;;1.08;100.00;97255.16;4969703;28;20128;-76
2021/01/06 09:43:53;;;;;;;68.53;13.27;;;;;;;1.01;100.00;97249.25;4993968;28;20042;-75
2021/01/06 09:46:30;;;;;;;50.58;12.13;;;;;;;1.08;100.00;97257.03;4976077;28;20410;-76
2021/01/06 09:49:02;;;;;;;59.35;14.15;;;;;;;1.07;100.00;97255.41;4976644;28;20062;-76
2021/01/06 09:51:29;;;;;;;42.97;14.77;;;;;;;1.26;100.00;97254.63;4994232;28;20049;-76
2021/01/06 09:54:01;;;;;;;32.70;14.52;;;;;;;1.32;100.00;97255.44;4984863;28;20474;-76
2021/01/06 09:56:31;;;;;;;33.30;13.98;;;;;;;1.37;100.00;97255.44;4991190;28;20045;-77
2021/01/06 09:59:00;;;;;;;24.90;10.90;;;;;;;1.37;100.00;97249.34;4991218;28;20070;-76
2021/01/06 10:01:38;;;;;;;21.23;9.93;;;;;;;1.34;100.00;97253.34;4975223;28;20054;-76
2021/01/06 10:04:16;;;;;;;14.63;8.10;;;;;;;1.44;100.00;97248.00;4994585;28;20039;-78
2021/01/06 10:06:58;;;;;;;15.75;7.90;;;;;;;1.57;100.00;97250.16;4993464;28;20057;-78
2021/01/06 10:09:36;;;;;;;28.00;9.40;;;;;;;1.61;100.00;97251.22;4977757;28;20080;-76
2021/01/06 10:12:30;;;;;;;16.73;7.93;;;;;;;1.58;100.00;97229.59;4976863;28;20051;-75
2021/01/06 10:14:59;;;;;;;20.58;7.80;;;;;;;1.72;100.00;97247.47;4976634;28;20058;-75
2021/01/06 10:17:28;;;;;;;23.67;7.60;;;;;;;1.65;100.00;97246.94;4992961;28;20553;-77
2021/01/06 10:20:19;;;;;;;33.28;7.70;;;;;;;1.75;100.00;97240.81;5003738;28;20042;-75
2021/01/06 10:22:53;;;;;;;26.17;8.05;;;;;;;1.86;100.00;97237.03;4976364;28;20051;-76
2021/01/06 10:25:28;;;;;;;60.00;8.00;;;;;;;1.68;100.00;97234.91;4986620;28;20484;-78
2021/01/06 10:28:00;;;;;;;;;;;;;;;1.49;100.00;97240.00;4956579;28;20062;-76
2021/01/06 10:30:32;;;;;;;71.97;8.77;;;;;;;1.58;100.00;97226.91;4974510;28;19933;-76
2021/01/06 10:33:14;;;;;;;68.70;8.70;;;;;;;1.64;100.00;97231.19;4959417;28;20439;-76
2021/01/06 10:36:04;;;;;;;107.05;10.85;;;;;;;1.52;100.00;97241.34;4972924;28;20054;-76
2021/01/06 10:38:37;;;;;;;88.93;8.55;;;;;;;1.47;100.00;97233.34;4958984;28;20051;-76
2021/01/06 10:41:09;;;;;;;19.30;6.68;;;;;;;1.38;100.00;97224.25;5007782;28;20049;-76
2021/01/06 10:43:43;;;;;;;14.13;6.70;;;;;;;1.39;100.00;97221.34;4997709;28;20499;-76
2021/01/06 10:46:32;;;;;;;15.88;6.40;;;;;;;1.41;100.00;97224.53;4975335;28;20098;-75
2021/01/06 10:48:58;;;;;;;35.67;5.25;;;;;;;1.26;100.00;97219.97;5008838;28;20042;-76
2021/01/06 10:51:48;;;;;;;22.45;5.65;;;;;;;1.24;100.00;97208.78;4960873;28;20078;-76
2021/01/06 10:54:21;;;;;;;67.40;8.17;;;;;;;1.15;100.00;97214.91;4993358;28;20208;-76
2021/01/06 10:56:51;;;;;;;19.65;6.43;;;;;;;1.14;100.00;97208.78;4974755;28;20292;-77
2021/01/06 10:59:17;;;;;;;27.10;6.38;;;;;;;1.23;100.00;97217.06;4959724;28;20050;-77
2021/01/06 11:02:14;;;;;;;53.53;7.00;;;;;;;1.19;100.00;97221.31;4992443;28;20039;-76
2021/01/06 11:05:02;;;;;;;55.58;6.60;;;;;;;1.10;100.00;97212.25;4992945;28;20077;-76
2021/01/06 11:08:02;;;;;;;96.07;7.10;;;;;;;0.97;100.00;97210.09;4976269;28;20219;-76
2021/01/06 11:10:53;;;;;;;78.32;7.10;;;;;;;0.94;100.00;97205.28;4979588;28;20093;-77
2021/01/06 11:13:37;;;;;;;92.10;6.20;;;;;;;1.05;100.00;97199.72;5010994;28;20423;-76
2021/01/06 11:16:19;;;;;;;129.73;7.60;;;;;;;1.05;100.00;97213.03;4966789;28;20050;-76
2021/01/06 11:18:48;;;;;;;206.85;8.52;;;;;;;1.08;100.00;97203.72;4974605;28;20089;-76
2021/01/06 11:21:22;;;;;;;178.68;8.32;;;;;;;1.12;100.00;97210.91;4991005;28;20285;-76
2021/01/06 11:23:58;;;;;;;94.35;7.25;;;;;;;1.16;100.00;97219.19;4991536;28;20073;-76
2021/01/06 11:26:30;;;;;;;117.80;8.02;;;;;;;1.21;100.00;97213.88;4990866;28;20129;-76
2021/01/06 11:29:25;;;;;;;412.42;12.65;;;;;;;1.05;100.00;97209.56;4989948;28;20515;-76
2021/01/06 11:32:00;;;;;;;179.18;7.82;;;;;;;1.07;100.00;97205.56;4991376;28;20106;-76
2021/01/06 11:34:29;;;;;;;;;;;;;;;0.96;100.00;97205.81;4991197;28;20073;-76
2021/01/06 11:36:59;;;;;;;208.40;9.00;;;;;;;0.90;100.00;97197.03;4992376;28;19929;-76
2021/01/06 11:39:26;;;;;;;247.10;10.25;;;;;;;0.99;100.00;97205.28;4990057;28;20050;-76
2021/01/06 11:42:18;;;;;;;503.00;14.43;;;;;;;0.87;100.00;97200.22;4992313;28;20073;-77
2021/01/06 11:45:03;;;;;;;184.23;8.38;;;;;;;0.98;100.00;97199.16;4979682;28;20054;-75
2021/01/06 11:47:37;;;;;;;181.02;9.70;;;;;;;0.94;100.00;97189.28;4952909;28;20050;-75
2021/01/06 11:50:57;;;;;;;65.05;7.78;;;;;;;1.11;100.00;97187.97;4972310;28;20042;-76
2021/01/06 11:53:26;;;;;;;105.25;9.32;;;;;;;1.14;100.00;97190.13;4960277;28;20050;-76
2021/01/06 11:56:03;;;;;;;35.97;8.23;;;;;;;1.20;100.00;97175.75;4972255;28;20050;-76
2021/01/06 11:58:45;;;;;;;29.17;9.38;;;;;;;1.30;100.00;97185.59;4989946;28;20050;-77
2021/01/06 12:01:35;;;;;;;19.63;9.32;;;;;;;1.36;100.00;97181.88;4941912;28;20242;-76
2021/01/06 12:04:18;;;;;;;21.98;10.38;;;;;;;1.21;100.00;97172.00;4950901;28;20065;-76
2021/01/06 12:06:47;;;;;;;21.73;11.32;;;;;;;1.26;100.00;97171.22;4989415;28;20046;-77
2021/01/06 12:09:32;;;;;;;25.08;12.05;;;;;;;1.27;100.00;97173.59;4982352;28;20142;-76
2021/01/06 12:12:20;;;;;;;25.42;12.38;;;;;;;1.39;100.00;97161.88;4973092;28;20056;-76
2021/01/06 12:15:03;;;;;;;18.33;10.23;;;;;;;1.27;100.00;97170.13;4988562;28;20069;-77
2021/01/06 12:17:36;;;;;;;18.75;10.30;;;;;;;1.31;100.00;97165.06;4996642;28;20046;-77
2021/01/06 12:20:31;;;;;;;19.77;11.43;;;;;;;1.36;100.00;97155.22;4985978;28;20058;-76
2021/01/06 12:23:13;;;;;;;18.52;10.15;;;;;;;1.35;100.00;97150.94;4974563;28;20505;-76
2021/01/06 12:26:25;;;;;;;19.00;10.52;;;;;;;1.31;100.00;97147.22;4963283;28;20096;-76
2021/01/06 12:28:57;;;;;;;20.80;11.52;;;;;;;1.10;100.00;97149.09;4971514;28;20051;-76
2021/01/06 12:31:41;;;;;;;25.33;12.13;;;;;;;1.17;100.00;97144.28;4978166;28;20410;-76
2021/01/06 12:34:15;;;;;;;26.75;13.88;;;;;;;1.10;100.00;97142.94;4952914;28;20145;-76
2021/01/06 12:37:01;;;;;;;31.27;14.95;;;;;;;1.07;100.00;97156.81;4961807;28;20551;-77
2021/01/06 12:39:27;;;;;;;24.63;12.40;;;;;;;0.98;100.00;97153.06;4990726;28;20058;-76
2021/01/06 12:42:03;;;;;;;32.67;17.15;;;;;;;1.01;100.00;97149.84;4996750;28;20497;-76
2021/01/06 12:44:34;;;;;;;36.38;16.35;;;;;;;0.95;100.00;97142.94;4957045;28;20046;-76
2021/01/06 12:47:08;;;;;;;33.88;16.45;;;;;;;1.02;100.00;97154.94;4987632;28;20544;-75
2021/01/06 12:50:09;;;;;;;33.28;16.20;;;;;;;1.07;100.00;97148.81;4955687;28;20501;-76
2021/01/06 12:52:42;;;;;;;35.78;16.67;;;;;;;1.01;100.00;97141.88;4965108;28;20082;-76
2021/01/06 12:55:38;;;;;;;34.45;16.05;;;;;;;0.91;100.00;97145.31;4956524;28;20058;-76
2021/01/06 12:58:33;;;;;;;33.42;15.15;;;;;;;0.96;100.00;97140.00;4948608;28;20538;-75
2021/01/06 13:01:16;;;;;;;34.60;14.93;;;;;;;0.99;100.00;97149.31;4990342;28;20047;-76
2021/01/06 13:03:47;;;;;;;28.15;13.52;;;;;;;1.03;100.00;97147.75;4989823;28;20046;-76
2021/01/06 13:06:19;;;;;;;25.75;12.27;;;;;;;1.10;100.00;97140.28;4973585;28;20045;-76
2021/01/06 13:08:52;;;;;;;23.23;11.80;;;;;;;1.13;100.00;97134.41;4989815;28;20057;-76
2021/01/06 13:11:30;;;;;;;22.65;11.20;;;;;;;1.21;100.00;97141.88;4957927;28;20661;-76
2021/01/06 13:14:37;;;;;;;20.38;10.38;;;;;;;1.21;100.00;97137.34;4967839;28;20057;-75
2021/01/06 13:17:20;;;;;;;23.65;10.20;;;;;;;1.18;100.00;97137.09;4967613;28;20062;-77
2021/01/06 13:20:08;;;;;;;19.02;10.15;;;;;;;1.18;100.00;97139.75;4990296;28;20516;-82
2021/01/06 13:22:48;;;;;;;23.02;10.55;;;;;;;1.26;100.00;97147.22;4956512;28;20053;-81
2021/01/06 13:25:17;;;;;;;21.05;9.95;;;;;;;1.29;100.00;97143.22;4953967;28;20042;-83
2021/01/06 13:27:52;;;;;;;20.52;9.15;;;;;;;1.24;100.00;97139.47;4955436;28;20486;-83
2021/01/06 13:30:22;;;;;;;18.70;9.45;;;;;;;1.25;100.00;97149.09;4995252;28;20125;-82
2021/01/06 13:32:48;;;;;;;15.90;8.65;;;;;;;1.26;100.00;97133.88;4988986;28;20049;-82
2021/01/06 13:35:47;;;;;;;16.30;9.18;;;;;;;1.24;100.00;97138.66;4976111;28;20057;-82
2021/01/06 13:38:23;;;;;;;16.20;8.52;;;;;;;1.35;100.00;97136.78;4975864;28;20253;-81
2021/01/06 13:40:51;;;;;;;16.15;8.85;;;;;;;1.28;100.00;97145.06;4962874;28;20051;-82
2021/01/06 13:43:34;;;;;;;18.42;10.00;;;;;;;1.22;100.00;97141.63;4996684;28;20053;-82
2021/01/06 13:46:25;;;;;;;21.30;10.93;;;;;;;1.21;100.00;97150.66;4990113;28;20050;-82
2021/01/06 13:49:12;;;;;;;20.85;10.48;;;;;;;1.27;100.00;97162.13;4999342;28;20053;-82